createdAt,value
2018-12-25T00:02:17.046Z,100.00
2018-12-25T00:07:18.533Z,100.00
2018-12-25T00:12:19.581Z,100.00
2018-12-25T00:17:22.067Z,100.00
2018-12-25T00:22:23.089Z,100.00
2018-12-25T00:27:26.930Z,100.00
2018-12-25T00:32:28.003Z,100.00
2018-12-25T00:37:31.294Z,100.00
2018-12-25T00:42:32.223Z,100.00
2018-12-25T00:47:33.100Z,100.00
2018-12-25T00:52:34.346Z,100.00
2018-12-25T00:57:35.927Z,100.00
2018-12-25T01:02:37.015Z,100.00
2018-12-25T01:07:37.929Z,100.00
2018-12-25T01:12:39.224Z,100.00
2018-12-25T01:17:40.115Z,100.00
2018-12-25T01:22:41.206Z,100.00
2018-12-25T01:27:43.458Z,100.00
2018-12-25T01:32:44.544Z,100.00
2018-12-25T01:37:45.589Z,100.00
2018-12-25T01:42:48.098Z,99.72
2018-12-25T01:47:51.350Z,98.87
2018-12-25T01:52:54.536Z,97.16
2018-12-25T01:58:04.565Z,95.94
2018-12-25T02:03:07.468Z,93.72
2018-12-25T02:08:41.409Z,93.54
2018-12-25T02:13:42.583Z,92.53
2018-12-25T02:19:04.090Z,97.15
2018-12-25T02:24:07.900Z,96.00
2018-12-25T02:34:29.547Z,100.00
2018-12-25T03:02:16.565Z,100.00
2018-12-25T03:07:19.598Z,100.00
2018-12-25T03:12:20.356Z,100.00
2018-12-25T03:17:21.075Z,100.00
2018-12-25T03:22:21.753Z,100.00
2018-12-25T03:27:22.550Z,100.00
2018-12-25T03:32:23.234Z,100.00
2018-12-25T03:37:23.997Z,100.00
2018-12-25T03:42:24.753Z,100.00
2018-12-25T03:47:25.465Z,100.00
2018-12-25T03:52:26.120Z,100.00
2018-12-25T03:57:27.037Z,100.00
2018-12-25T04:02:27.769Z,100.00
2018-12-25T04:07:28.569Z,100.00
2018-12-25T04:12:29.197Z,100.00
2018-12-25T04:17:29.846Z,99.34
2018-12-25T04:22:31.886Z,100.00
2018-12-25T04:27:32.607Z,100.00
2018-12-25T04:32:33.403Z,100.00
2018-12-25T04:37:34.143Z,100.00
2018-12-25T04:42:34.877Z,100.00
2018-12-25T04:47:35.620Z,100.00
2018-12-25T04:52:36.343Z,100.00
2018-12-25T04:57:38.215Z,100.00
2018-12-25T05:02:38.933Z,100.00
2018-12-25T05:07:39.782Z,100.00
2018-12-25T05:12:40.785Z,100.00
2018-12-25T05:17:41.535Z,100.00
2018-12-25T05:22:42.302Z,100.00
2018-12-25T05:27:43.060Z,100.00
2018-12-25T05:32:43.825Z,97.67
2018-12-25T05:37:45.464Z,97.39
2018-12-25T05:42:46.152Z,96.95
2018-12-25T05:47:46.850Z,94.34
2018-12-25T05:52:47.589Z,98.21
2018-12-25T05:57:48.415Z,100.00
2018-12-25T06:02:49.027Z,100.00
2018-12-25T06:07:49.723Z,100.00
2018-12-25T06:12:50.499Z,100.00
2018-12-25T06:17:51.229Z,100.00
2018-12-25T06:22:52.034Z,95.84
2018-12-25T06:27:52.696Z,93.55
2018-12-25T06:32:53.491Z,92.22
2018-12-25T06:37:54.203Z,91.13
2018-12-25T06:42:54.955Z,91.78
2018-12-25T06:47:55.727Z,91.78
2018-12-25T06:52:56.540Z,92.60
2018-12-25T06:57:57.198Z,96.80
2018-12-25T07:02:57.998Z,100.00
2018-12-25T07:07:58.725Z,100.00
2018-12-25T07:12:59.478Z,99.53
2018-12-25T07:18:00.206Z,95.90
2018-12-25T07:23:01.079Z,96.30
2018-12-25T07:28:01.769Z,92.86
2018-12-25T07:33:02.465Z,94.85
2018-12-25T07:38:03.137Z,98.44
2018-12-25T07:43:03.842Z,94.38
2018-12-25T07:48:04.574Z,95.62
2018-12-25T07:53:05.422Z,95.35
2018-12-25T07:58:06.121Z,96.43
2018-12-25T08:03:06.823Z,98.96
2018-12-25T08:08:07.558Z,95.74
2018-12-25T08:13:08.316Z,99.44
2018-12-25T08:18:09.055Z,99.14
2018-12-25T08:23:09.664Z,98.52
2018-12-25T08:28:10.473Z,95.77
2018-12-25T08:33:12.204Z,90.27
2018-12-25T08:38:12.980Z,89.82
2018-12-25T08:43:13.671Z,93.33
2018-12-25T08:48:14.366Z,94.29
2018-12-25T08:53:15.239Z,94.57
2018-12-25T08:58:16.059Z,95.24
2018-12-25T09:08:51.781Z,93.06
2018-12-25T09:13:52.500Z,95.68
2018-12-25T09:18:53.351Z,97.35
2018-12-25T09:23:54.151Z,94.72
2018-12-25T09:28:54.906Z,94.39
2018-12-25T09:33:55.613Z,94.53
2018-12-25T09:38:56.421Z,96.06
2018-12-25T09:43:57.112Z,96.32
2018-12-25T09:48:57.874Z,97.39
2018-12-25T09:53:59.654Z,99.69
2018-12-25T09:59:00.366Z,93.21
2018-12-25T10:04:01.061Z,95.10
2018-12-25T10:09:04.070Z,93.73
2018-12-25T10:14:04.770Z,91.60
2018-12-25T10:19:05.443Z,90.56
2018-12-25T10:24:06.321Z,89.72
2018-12-25T10:29:06.960Z,89.97
2018-12-25T10:34:07.675Z,91.95
2018-12-25T10:39:09.370Z,90.72
2018-12-25T10:44:10.010Z,90.92
2018-12-25T10:56:07.702Z,89.83
2018-12-25T11:00:46.337Z,89.97
2018-12-25T11:05:47.194Z,88.10
2018-12-25T11:10:49.242Z,87.47
2018-12-25T11:16:02.590Z,87.57
2018-12-25T11:20:55.288Z,85.72
2018-12-25T11:25:55.976Z,86.62
2018-12-25T11:36:41.069Z,85.02
2018-12-25T11:41:41.817Z,82.92
2018-12-25T11:47:15.351Z,83.43
2018-12-25T11:52:17.714Z,82.85
2018-12-25T11:57:20.423Z,82.54
2018-12-25T12:07:36.263Z,81.96
2018-12-25T12:12:44.798Z,82.61
2018-12-25T12:17:48.837Z,80.84
2018-12-25T12:22:49.667Z,82.00
2018-12-25T12:28:55.099Z,83.22
2018-12-25T12:33:47.546Z,82.49
2018-12-25T12:38:09.270Z,82.80
2018-12-25T12:43:10.479Z,82.50
2018-12-25T12:48:11.429Z,82.32
2018-12-25T12:53:12.154Z,82.34
2018-12-25T12:58:13.127Z,83.49
2018-12-25T13:03:21.468Z,84.25
2018-12-25T13:08:22.476Z,84.68
2018-12-25T13:13:23.608Z,85.98
2018-12-25T13:18:24.679Z,86.46
2018-12-25T13:23:30.331Z,85.31
2018-12-25T13:28:33.747Z,85.37
2018-12-25T13:33:39.983Z,85.58
2018-12-25T13:38:42.865Z,86.48
2018-12-25T13:43:44.258Z,85.35
2018-12-25T13:48:45.395Z,86.66
2018-12-25T13:53:51.104Z,86.42
2018-12-25T13:58:53.723Z,87.68
2018-12-25T14:03:55.398Z,87.63
2018-12-25T14:08:56.573Z,87.05
2018-12-25T14:14:02.254Z,88.24
2018-12-25T14:19:05.391Z,89.32
2018-12-25T14:24:10.442Z,89.12
2018-12-25T14:29:13.240Z,87.84
2018-12-25T14:34:14.375Z,89.82
2018-12-25T14:39:15.592Z,88.23
2018-12-25T14:44:16.941Z,88.84
2018-12-25T14:49:18.856Z,88.59
2018-12-25T14:54:22.538Z,89.07
2018-12-25T14:59:24.393Z,90.75
2018-12-25T15:04:25.538Z,90.36
2018-12-25T15:09:28.456Z,90.31
2018-12-25T15:14:34.923Z,91.48
2018-12-25T15:19:36.115Z,90.55
2018-12-25T15:24:37.372Z,91.08
2018-12-25T15:29:39.617Z,90.89
2018-12-25T15:34:50.078Z,91.00
2018-12-25T15:39:52.898Z,90.75
2018-12-25T15:44:54.882Z,87.67
2018-12-25T15:49:55.763Z,92.12
2018-12-25T15:54:58.256Z,92.98
2018-12-25T15:59:59.331Z,93.57
2018-12-25T16:05:00.504Z,91.81
2018-12-25T16:10:03.353Z,95.98
2018-12-25T16:15:04.838Z,94.18
2018-12-25T16:20:07.875Z,94.01
2018-12-25T16:25:09.115Z,93.16
2018-12-25T16:30:09.889Z,93.73
2018-12-25T16:35:10.841Z,92.48
2018-12-25T16:40:14.574Z,92.03
2018-12-25T16:45:15.665Z,92.00
2018-12-25T16:50:16.438Z,91.88
2018-12-25T16:55:17.581Z,92.43
2018-12-25T17:00:18.549Z,91.29
2018-12-25T17:05:20.982Z,91.46
2018-12-25T17:10:21.794Z,91.50
2018-12-25T17:15:29.031Z,92.28
2018-12-25T17:20:30.211Z,90.21
2018-12-25T17:25:31.929Z,91.88
2018-12-25T17:30:32.687Z,92.63
2018-12-25T17:35:33.830Z,93.74
2018-12-25T17:40:34.971Z,91.61
2018-12-25T17:45:37.032Z,91.96
2018-12-25T17:50:39.998Z,90.93
2018-12-25T17:55:42.048Z,91.05
2018-12-25T18:00:43.398Z,89.42
2018-12-25T18:05:46.606Z,89.88
2018-12-25T18:10:50.370Z,89.32
2018-12-25T18:15:54.724Z,90.66
2018-12-25T18:20:56.012Z,89.46
2018-12-25T18:25:58.495Z,89.33
2018-12-25T18:31:00.037Z,91.63
2018-12-25T18:36:01.546Z,95.53
2018-12-25T18:41:02.401Z,95.81
2018-12-25T18:46:03.326Z,96.65
2018-12-25T18:51:07.845Z,95.62
2018-12-25T18:56:09.034Z,95.72
2018-12-25T19:01:12.228Z,97.51
2018-12-25T19:06:13.348Z,95.02
2018-12-25T19:11:14.337Z,95.60
2018-12-25T19:16:18.037Z,95.49
2018-12-25T19:21:18.781Z,94.01
2018-12-25T19:26:21.303Z,93.84
2018-12-25T19:31:22.133Z,95.83
2018-12-25T19:36:23.166Z,95.79
2018-12-25T19:41:50.797Z,96.16
2018-12-25T19:46:51.669Z,95.66
2018-12-25T19:51:54.905Z,94.89
2018-12-25T19:57:05.477Z,94.33
2018-12-25T20:02:07.881Z,96.83
2018-12-25T20:07:30.853Z,97.76
2018-12-25T20:13:04.101Z,99.99
2018-12-25T20:18:40.529Z,100.00
2018-12-25T20:24:19.254Z,100.00
2018-12-25T20:29:52.419Z,100.00
2018-12-25T20:35:15.249Z,100.00
2018-12-25T20:40:29.082Z,100.00
2018-12-25T20:46:11.086Z,100.00
2018-12-25T20:51:30.089Z,100.00
2018-12-25T21:08:27.220Z,100.00
2018-12-25T21:13:40.887Z,100.00
2018-12-25T21:18:46.888Z,100.00
2018-12-25T21:24:25.269Z,100.00
2018-12-25T21:29:26.231Z,100.00
2018-12-25T21:34:26.894Z,100.00
2018-12-25T21:39:27.586Z,100.00
2018-12-25T21:44:28.232Z,100.00
2018-12-25T21:49:29.465Z,100.00
2018-12-25T21:54:30.429Z,100.00
2018-12-25T21:59:31.462Z,100.00
2018-12-25T22:04:32.439Z,100.00
2018-12-25T22:09:33.444Z,100.00
2018-12-25T22:14:34.129Z,100.00
2018-12-25T22:19:34.958Z,100.00
2018-12-25T22:24:36.017Z,100.00
2018-12-25T22:29:37.089Z,100.00
2018-12-25T22:34:37.830Z,100.00
2018-12-25T22:39:38.624Z,100.00
2018-12-25T22:44:39.428Z,100.00
2018-12-25T22:49:40.453Z,100.00
2018-12-25T22:54:42.226Z,100.00
2018-12-25T22:59:43.099Z,100.00
2018-12-25T23:04:46.900Z,100.00
2018-12-25T23:09:57.216Z,100.00
2018-12-25T23:14:59.720Z,100.00
2018-12-25T23:20:00.990Z,100.00
2018-12-25T23:30:19.050Z,100.00
2018-12-25T23:35:29.745Z,100.00
2018-12-25T23:40:30.636Z,100.00
2018-12-25T23:45:31.330Z,100.00
2018-12-25T23:50:32.224Z,100.00
2018-12-25T23:55:33.460Z,100.00
